sensor_id;sensor_type;location;lat;lon;timestamp;temperature;humidity
22526;DHT22;11429;50.842;4.386;2023-09-07T00:01:55;22.30;99.90
22526;DHT22;11429;50.842;4.386;2023-09-07T00:04:21;22.20;99.90
22526;DHT22;11429;50.842;4.386;2023-09-07T00:06:48;22.20;99.90
22526;DHT22;11429;50.842;4.386;2023-09-07T00:09:16;22.10;99.90
22526;DHT22;11429;50.842;4.386;2023-09-07T00:11:44;22.00;99.90
22526;DHT22;11429;50.842;4.386;2023-09-07T00:14:10;22.00;99.90
22526;DHT22;11429;50.842;4.386;2023-09-07T00:16:36;21.50;99.90
22526;DHT22;11429;50.842;4.386;2023-09-07T00:19:04;21.40;99.90
22526;DHT22;11429;50.842;4.386;2023-09-07T00:21:30;21.50;99.90
22526;DHT22;11429;50.842;4.386;2023-09-07T00:23:56;21.30;99.90
22526;DHT22;11429;50.842;4.386;2023-09-07T00:26:22;21.30;99.90
22526;DHT22;11429;50.842;4.386;2023-09-07T00:28:47;21.30;99.90
22526;DHT22;11429;50.842;4.386;2023-09-07T00:31:13;21.40;99.90
22526;DHT22;11429;50.842;4.386;2023-09-07T00:33:39;21.50;99.90
22526;DHT22;11429;50.842;4.386;2023-09-07T00:36:05;21.50;99.90
22526;DHT22;11429;50.842;4.386;2023-09-07T00:38:30;21.60;99.90
22526;DHT22;11429;50.842;4.386;2023-09-07T00:40:56;21.60;99.90
22526;DHT22;11429;50.842;4.386;2023-09-07T00:43:22;21.60;99.90
22526;DHT22;11429;50.842;4.386;2023-09-07T00:45:48;21.50;99.90
22526;DHT22;11429;50.842;4.386;2023-09-07T00:48:15;21.50;99.90
22526;DHT22;11429;50.842;4.386;2023-09-07T00:50:42;21.50;99.90
22526;DHT22;11429;50.842;4.386;2023-09-07T00:53:10;21.50;99.90
22526;DHT22;11429;50.842;4.386;2023-09-07T00:55:36;21.50;99.90
22526;DHT22;11429;50.842;4.386;2023-09-07T00:58:06;21.40;99.90
22526;DHT22;11429;50.842;4.386;2023-09-07T01:00:33;21.40;99.90
22526;DHT22;11429;50.842;4.386;2023-09-07T01:02:59;21.30;99.90
22526;DHT22;11429;50.842;4.386;2023-09-07T01:05:43;21.30;99.90
22526;DHT22;11429;50.842;4.386;2023-09-07T01:08:26;21.30;99.90
22526;DHT22;11429;50.842;4.386;2023-09-07T01:10:54;21.30;99.90
22526;DHT22;11429;50.842;4.386;2023-09-07T01:13:19;21.30;99.90
22526;DHT22;11429;50.842;4.386;2023-09-07T01:15:46;21.40;99.90
22526;DHT22;11429;50.842;4.386;2023-09-07T01:18:12;21.30;99.90
22526;DHT22;11429;50.842;4.386;2023-09-07T01:20:40;21.30;99.90
22526;DHT22;11429;50.842;4.386;2023-09-07T01:23:07;21.30;99.90
22526;DHT22;11429;50.842;4.386;2023-09-07T01:25:34;21.30;99.90
22526;DHT22;11429;50.842;4.386;2023-09-07T01:27:59;21.20;99.90
22526;DHT22;11429;50.842;4.386;2023-09-07T01:30:27;21.20;99.90
22526;DHT22;11429;50.842;4.386;2023-09-07T01:32:53;21.10;99.90
22526;DHT22;11429;50.842;4.386;2023-09-07T01:35:19;21.10;99.90
22526;DHT22;11429;50.842;4.386;2023-09-07T01:37:47;21.10;99.90
22526;DHT22;11429;50.842;4.386;2023-09-07T01:40:13;21.10;99.90
22526;DHT22;11429;50.842;4.386;2023-09-07T01:42:39;20.90;99.90
22526;DHT22;11429;50.842;4.386;2023-09-07T01:45:05;21.00;99.90
22526;DHT22;11429;50.842;4.386;2023-09-07T01:47:31;21.00;99.90
22526;DHT22;11429;50.842;4.386;2023-09-07T01:49:57;20.90;99.90
22526;DHT22;11429;50.842;4.386;2023-09-07T01:52:22;20.80;99.90
22526;DHT22;11429;50.842;4.386;2023-09-07T01:54:48;20.70;99.90
22526;DHT22;11429;50.842;4.386;2023-09-07T01:57:14;20.80;99.90
22526;DHT22;11429;50.842;4.386;2023-09-07T01:59:39;20.90;99.90
22526;DHT22;11429;50.842;4.386;2023-09-07T02:02:05;20.90;99.90
22526;DHT22;11429;50.842;4.386;2023-09-07T02:04:31;20.90;99.90
22526;DHT22;11429;50.842;4.386;2023-09-07T02:06:56;21.00;99.90
22526;DHT22;11429;50.842;4.386;2023-09-07T02:09:22;21.00;99.90
22526;DHT22;11429;50.842;4.386;2023-09-07T02:11:48;21.00;99.90
22526;DHT22;11429;50.842;4.386;2023-09-07T02:14:13;21.00;99.90
22526;DHT22;11429;50.842;4.386;2023-09-07T02:16:39;20.90;99.90
22526;DHT22;11429;50.842;4.386;2023-09-07T02:19:05;20.80;99.90
22526;DHT22;11429;50.842;4.386;2023-09-07T02:21:32;20.70;99.90
22526;DHT22;11429;50.842;4.386;2023-09-07T02:23:58;20.80;99.90
22526;DHT22;11429;50.842;4.386;2023-09-07T02:26:24;20.60;99.90
22526;DHT22;11429;50.842;4.386;2023-09-07T02:28:50;20.50;99.90
22526;DHT22;11429;50.842;4.386;2023-09-07T02:31:15;20.60;99.90
22526;DHT22;11429;50.842;4.386;2023-09-07T02:33:41;20.70;99.90
22526;DHT22;11429;50.842;4.386;2023-09-07T02:36:07;20.90;99.90
22526;DHT22;11429;50.842;4.386;2023-09-07T02:38:32;20.70;99.90
22526;DHT22;11429;50.842;4.386;2023-09-07T02:40:58;20.70;99.90
22526;DHT22;11429;50.842;4.386;2023-09-07T02:43:24;20.50;99.90
22526;DHT22;11429;50.842;4.386;2023-09-07T02:45:50;20.40;99.90
22526;DHT22;11429;50.842;4.386;2023-09-07T02:48:16;20.40;99.90
22526;DHT22;11429;50.842;4.386;2023-09-07T02:50:41;20.20;99.90
22526;DHT22;11429;50.842;4.386;2023-09-07T02:53:08;20.20;99.90
22526;DHT22;11429;50.842;4.386;2023-09-07T02:55:34;20.10;99.90
22526;DHT22;11429;50.842;4.386;2023-09-07T02:58:03;19.90;99.90
22526;DHT22;11429;50.842;4.386;2023-09-07T03:00:29;19.70;99.90
22526;DHT22;11429;50.842;4.386;2023-09-07T03:02:55;19.80;99.90
22526;DHT22;11429;50.842;4.386;2023-09-07T03:05:21;19.70;99.90
22526;DHT22;11429;50.842;4.386;2023-09-07T03:07:47;19.70;99.90
22526;DHT22;11429;50.842;4.386;2023-09-07T03:10:13;19.60;99.90
22526;DHT22;11429;50.842;4.386;2023-09-07T03:12:39;19.70;99.90
22526;DHT22;11429;50.842;4.386;2023-09-07T03:15:05;19.70;99.90
22526;DHT22;11429;50.842;4.386;2023-09-07T03:17:31;19.70;99.90
22526;DHT22;11429;50.842;4.386;2023-09-07T03:19:57;19.60;99.90
22526;DHT22;11429;50.842;4.386;2023-09-07T03:22:23;19.60;99.90
22526;DHT22;11429;50.842;4.386;2023-09-07T03:24:50;19.70;99.90
22526;DHT22;11429;50.842;4.386;2023-09-07T03:27:16;19.70;99.90
22526;DHT22;11429;50.842;4.386;2023-09-07T03:29:43;19.70;99.90
22526;DHT22;11429;50.842;4.386;2023-09-07T03:32:09;19.70;99.90
22526;DHT22;11429;50.842;4.386;2023-09-07T03:34:35;19.70;99.90
22526;DHT22;11429;50.842;4.386;2023-09-07T03:37:01;19.50;99.90
22526;DHT22;11429;50.842;4.386;2023-09-07T03:39:27;19.40;99.90
22526;DHT22;11429;50.842;4.386;2023-09-07T03:41:54;19.60;99.90
22526;DHT22;11429;50.842;4.386;2023-09-07T03:44:19;19.50;99.90
22526;DHT22;11429;50.842;4.386;2023-09-07T03:46:45;19.50;99.90
22526;DHT22;11429;50.842;4.386;2023-09-07T03:49:10;19.70;99.90
22526;DHT22;11429;50.842;4.386;2023-09-07T03:51:36;19.80;99.90
22526;DHT22;11429;50.842;4.386;2023-09-07T03:54:03;19.90;99.90
22526;DHT22;11429;50.842;4.386;2023-09-07T03:56:28;19.90;99.90
22526;DHT22;11429;50.842;4.386;2023-09-07T03:58:55;19.90;99.90
22526;DHT22;11429;50.842;4.386;2023-09-07T04:01:20;19.60;99.90
22526;DHT22;11429;50.842;4.386;2023-09-07T04:03:46;19.60;99.90
22526;DHT22;11429;50.842;4.386;2023-09-07T04:06:12;19.50;99.90
22526;DHT22;11429;50.842;4.386;2023-09-07T04:08:37;19.60;99.90
22526;DHT22;11429;50.842;4.386;2023-09-07T04:11:05;19.50;99.90
22526;DHT22;11429;50.842;4.386;2023-09-07T04:13:31;19.50;99.90
22526;DHT22;11429;50.842;4.386;2023-09-07T04:15:56;19.40;99.90
22526;DHT22;11429;50.842;4.386;2023-09-07T04:18:23;19.50;99.90
22526;DHT22;11429;50.842;4.386;2023-09-07T04:20:49;19.60;99.90
22526;DHT22;11429;50.842;4.386;2023-09-07T04:23:15;19.80;99.90
22526;DHT22;11429;50.842;4.386;2023-09-07T04:25:41;19.90;99.90
22526;DHT22;11429;50.842;4.386;2023-09-07T04:28:07;19.80;99.90
22526;DHT22;11429;50.842;4.386;2023-09-07T04:30:37;19.70;99.90
22526;DHT22;11429;50.842;4.386;2023-09-07T04:33:03;19.60;99.90
22526;DHT22;11429;50.842;4.386;2023-09-07T04:35:29;19.50;99.90
22526;DHT22;11429;50.842;4.386;2023-09-07T04:37:56;19.60;99.90
22526;DHT22;11429;50.842;4.386;2023-09-07T04:40:23;19.50;99.90
22526;DHT22;11429;50.842;4.386;2023-09-07T04:42:49;19.50;99.90
22526;DHT22;11429;50.842;4.386;2023-09-07T04:45:15;19.60;99.90
22526;DHT22;11429;50.842;4.386;2023-09-07T04:47:40;19.50;99.90
22526;DHT22;11429;50.842;4.386;2023-09-07T04:50:06;19.40;99.90
22526;DHT22;11429;50.842;4.386;2023-09-07T04:52:32;19.40;99.90
22526;DHT22;11429;50.842;4.386;2023-09-07T04:55:00;19.70;99.90
22526;DHT22;11429;50.842;4.386;2023-09-07T04:57:26;19.80;99.90
22526;DHT22;11429;50.842;4.386;2023-09-07T04:59:51;19.80;99.90
22526;DHT22;11429;50.842;4.386;2023-09-07T05:02:17;19.70;99.90
22526;DHT22;11429;50.842;4.386;2023-09-07T05:04:44;19.50;99.90
22526;DHT22;11429;50.842;4.386;2023-09-07T05:07:10;19.60;99.90
22526;DHT22;11429;50.842;4.386;2023-09-07T05:09:36;19.50;99.90
22526;DHT22;11429;50.842;4.386;2023-09-07T05:12:01;19.40;99.90
22526;DHT22;11429;50.842;4.386;2023-09-07T05:14:28;19.50;99.90
22526;DHT22;11429;50.842;4.386;2023-09-07T05:16:55;19.50;99.90
22526;DHT22;11429;50.842;4.386;2023-09-07T05:19:22;19.60;99.90
22526;DHT22;11429;50.842;4.386;2023-09-07T05:21:48;19.70;99.90
22526;DHT22;11429;50.842;4.386;2023-09-07T05:24:14;19.50;99.90
22526;DHT22;11429;50.842;4.386;2023-09-07T05:26:43;19.30;99.90
22526;DHT22;11429;50.842;4.386;2023-09-07T05:29:09;19.10;99.90
22526;DHT22;11429;50.842;4.386;2023-09-07T05:31:35;19.20;99.90
22526;DHT22;11429;50.842;4.386;2023-09-07T05:34:01;19.10;99.90
22526;DHT22;11429;50.842;4.386;2023-09-07T05:36:27;19.00;99.90
22526;DHT22;11429;50.842;4.386;2023-09-07T05:38:53;19.10;99.90
22526;DHT22;11429;50.842;4.386;2023-09-07T05:41:18;19.20;99.90
22526;DHT22;11429;50.842;4.386;2023-09-07T05:43:44;19.20;99.90
22526;DHT22;11429;50.842;4.386;2023-09-07T05:46:10;19.20;99.90
22526;DHT22;11429;50.842;4.386;2023-09-07T05:48:36;19.20;99.90
22526;DHT22;11429;50.842;4.386;2023-09-07T05:51:02;19.40;99.90
22526;DHT22;11429;50.842;4.386;2023-09-07T05:53:27;19.50;99.90
22526;DHT22;11429;50.842;4.386;2023-09-07T05:55:53;20.20;99.90
22526;DHT22;11429;50.842;4.386;2023-09-07T05:58:19;21.70;99.90
22526;DHT22;11429;50.842;4.386;2023-09-07T06:00:45;23.30;99.90
22526;DHT22;11429;50.842;4.386;2023-09-07T06:03:10;24.50;99.90
22526;DHT22;11429;50.842;4.386;2023-09-07T06:05:37;25.20;99.90
22526;DHT22;11429;50.842;4.386;2023-09-07T06:08:04;26.10;99.90
22526;DHT22;11429;50.842;4.386;2023-09-07T06:10:31;26.60;99.90
22526;DHT22;11429;50.842;4.386;2023-09-07T06:12:57;26.70;99.90
22526;DHT22;11429;50.842;4.386;2023-09-07T06:15:23;26.60;99.90
22526;DHT22;11429;50.842;4.386;2023-09-07T06:17:49;28.10;99.90
22526;DHT22;11429;50.842;4.386;2023-09-07T06:20:15;29.50;99.90
22526;DHT22;11429;50.842;4.386;2023-09-07T06:22:41;29.70;99.90
22526;DHT22;11429;50.842;4.386;2023-09-07T06:25:07;28.80;99.90
22526;DHT22;11429;50.842;4.386;2023-09-07T06:27:33;27.70;99.90
22526;DHT22;11429;50.842;4.386;2023-09-07T06:29:58;27.50;99.90
22526;DHT22;11429;50.842;4.386;2023-09-07T06:32:24;28.00;99.90
22526;DHT22;11429;50.842;4.386;2023-09-07T06:34:50;29.00;99.90
22526;DHT22;11429;50.842;4.386;2023-09-07T06:37:17;28.60;99.90
22526;DHT22;11429;50.842;4.386;2023-09-07T06:39:43;29.80;99.90
22526;DHT22;11429;50.842;4.386;2023-09-07T06:42:09;28.80;99.90
22526;DHT22;11429;50.842;4.386;2023-09-07T06:44:38;27.50;99.90
22526;DHT22;11429;50.842;4.386;2023-09-07T06:47:04;26.90;99.90
22526;DHT22;11429;50.842;4.386;2023-09-07T06:49:30;25.40;99.90
22526;DHT22;11429;50.842;4.386;2023-09-07T06:51:56;24.80;99.90
22526;DHT22;11429;50.842;4.386;2023-09-07T06:54:22;24.30;99.90
22526;DHT22;11429;50.842;4.386;2023-09-07T06:56:48;24.50;99.90
22526;DHT22;11429;50.842;4.386;2023-09-07T06:59:14;24.40;99.90
22526;DHT22;11429;50.842;4.386;2023-09-07T07:01:40;24.40;99.90
22526;DHT22;11429;50.842;4.386;2023-09-07T07:04:05;24.50;99.90
22526;DHT22;11429;50.842;4.386;2023-09-07T07:06:32;24.60;99.90
22526;DHT22;11429;50.842;4.386;2023-09-07T07:08:57;24.50;99.90
22526;DHT22;11429;50.842;4.386;2023-09-07T07:11:23;24.30;99.90
22526;DHT22;11429;50.842;4.386;2023-09-07T07:13:49;23.80;99.90
22526;DHT22;11429;50.842;4.386;2023-09-07T07:16:16;23.10;99.90
22526;DHT22;11429;50.842;4.386;2023-09-07T07:18:42;23.30;99.90
22526;DHT22;11429;50.842;4.386;2023-09-07T07:21:08;23.40;99.90
22526;DHT22;11429;50.842;4.386;2023-09-07T07:23:35;23.70;99.90
22526;DHT22;11429;50.842;4.386;2023-09-07T07:26:00;23.50;99.90
22526;DHT22;11429;50.842;4.386;2023-09-07T07:28:26;23.50;99.90
22526;DHT22;11429;50.842;4.386;2023-09-07T07:30:52;23.50;99.90
22526;DHT22;11429;50.842;4.386;2023-09-07T07:33:19;23.50;99.90
22526;DHT22;11429;50.842;4.386;2023-09-07T07:35:45;23.60;99.90
22526;DHT22;11429;50.842;4.386;2023-09-07T07:38:11;23.60;99.90
22526;DHT22;11429;50.842;4.386;2023-09-07T07:40:40;23.50;99.90
22526;DHT22;11429;50.842;4.386;2023-09-07T07:43:06;23.60;99.90
22526;DHT22;11429;50.842;4.386;2023-09-07T07:45:32;23.70;99.90
22526;DHT22;11429;50.842;4.386;2023-09-07T07:48:02;23.90;99.90
22526;DHT22;11429;50.842;4.386;2023-09-07T07:50:27;23.70;99.90
22526;DHT22;11429;50.842;4.386;2023-09-07T07:52:53;23.90;99.90
22526;DHT22;11429;50.842;4.386;2023-09-07T07:55:19;24.30;99.90
22526;DHT22;11429;50.842;4.386;2023-09-07T07:57:45;24.70;99.90
22526;DHT22;11429;50.842;4.386;2023-09-07T08:00:11;25.10;99.90
22526;DHT22;11429;50.842;4.386;2023-09-07T08:02:37;25.00;99.90
22526;DHT22;11429;50.842;4.386;2023-09-07T08:05:03;24.60;99.90
22526;DHT22;11429;50.842;4.386;2023-09-07T08:07:29;24.50;99.90
22526;DHT22;11429;50.842;4.386;2023-09-07T08:09:55;24.70;99.90
22526;DHT22;11429;50.842;4.386;2023-09-07T08:12:21;24.80;99.90
22526;DHT22;11429;50.842;4.386;2023-09-07T08:14:47;24.70;99.90
22526;DHT22;11429;50.842;4.386;2023-09-07T08:17:12;24.80;99.90
22526;DHT22;11429;50.842;4.386;2023-09-07T08:19:38;24.70;99.90
22526;DHT22;11429;50.842;4.386;2023-09-07T08:22:05;25.00;99.90
22526;DHT22;11429;50.842;4.386;2023-09-07T08:24:31;25.00;99.90
22526;DHT22;11429;50.842;4.386;2023-09-07T08:26:57;25.10;99.90
22526;DHT22;11429;50.842;4.386;2023-09-07T08:29:23;25.00;99.90
22526;DHT22;11429;50.842;4.386;2023-09-07T08:31:55;24.90;99.90
22526;DHT22;11429;50.842;4.386;2023-09-07T08:34:21;24.90;99.90
22526;DHT22;11429;50.842;4.386;2023-09-07T08:36:48;25.00;99.90
22526;DHT22;11429;50.842;4.386;2023-09-07T08:39:15;25.30;99.90
22526;DHT22;11429;50.842;4.386;2023-09-07T08:41:42;25.40;99.90
22526;DHT22;11429;50.842;4.386;2023-09-07T08:44:18;25.40;99.90
22526;DHT22;11429;50.842;4.386;2023-09-07T08:46:50;25.70;99.90
22526;DHT22;11429;50.842;4.386;2023-09-07T08:49:17;25.80;99.90
22526;DHT22;11429;50.842;4.386;2023-09-07T08:51:46;25.80;99.90
22526;DHT22;11429;50.842;4.386;2023-09-07T08:54:12;26.00;99.90
22526;DHT22;11429;50.842;4.386;2023-09-07T08:56:38;26.00;99.90
22526;DHT22;11429;50.842;4.386;2023-09-07T08:59:04;26.00;99.90
22526;DHT22;11429;50.842;4.386;2023-09-07T09:01:30;26.00;99.90
22526;DHT22;11429;50.842;4.386;2023-09-07T09:03:57;26.10;99.90
22526;DHT22;11429;50.842;4.386;2023-09-07T09:06:24;27.00;99.90
22526;DHT22;11429;50.842;4.386;2023-09-07T09:08:57;29.10;99.90
22526;DHT22;11429;50.842;4.386;2023-09-07T09:11:23;29.70;99.90
22526;DHT22;11429;50.842;4.386;2023-09-07T09:13:53;30.00;99.90
22526;DHT22;11429;50.842;4.386;2023-09-07T09:16:20;31.60;99.90
22526;DHT22;11429;50.842;4.386;2023-09-07T09:18:56;31.40;99.90
22526;DHT22;11429;50.842;4.386;2023-09-07T09:21:24;31.80;99.90
22526;DHT22;11429;50.842;4.386;2023-09-07T09:23:51;32.10;99.90
22526;DHT22;11429;50.842;4.386;2023-09-07T09:26:17;33.00;99.90
22526;DHT22;11429;50.842;4.386;2023-09-07T09:28:44;34.60;99.90
22526;DHT22;11429;50.842;4.386;2023-09-07T09:31:14;35.40;99.90
22526;DHT22;11429;50.842;4.386;2023-09-07T09:33:48;35.60;99.90
22526;DHT22;11429;50.842;4.386;2023-09-07T09:36:14;36.90;99.90
22526;DHT22;11429;50.842;4.386;2023-09-07T09:38:39;38.30;98.30
22526;DHT22;11429;50.842;4.386;2023-09-07T09:41:05;37.30;97.10
22526;DHT22;11429;50.842;4.386;2023-09-07T09:43:31;37.60;96.50
22526;DHT22;11429;50.842;4.386;2023-09-07T09:45:57;36.80;97.20
22526;DHT22;11429;50.842;4.386;2023-09-07T09:48:27;36.00;97.80
22526;DHT22;11429;50.842;4.386;2023-09-07T09:50:53;37.30;97.30
22526;DHT22;11429;50.842;4.386;2023-09-07T09:53:19;38.10;96.60
22526;DHT22;11429;50.842;4.386;2023-09-07T09:55:49;37.80;95.10
22526;DHT22;11429;50.842;4.386;2023-09-07T09:58:18;36.70;96.30
22526;DHT22;11429;50.842;4.386;2023-09-07T10:00:45;37.00;95.70
22526;DHT22;11429;50.842;4.386;2023-09-07T10:05:39;36.60;95.90
22526;DHT22;11429;50.842;4.386;2023-09-07T10:08:11;37.80;95.50
22526;DHT22;11429;50.842;4.386;2023-09-07T10:10:38;38.20;94.60
22526;DHT22;11429;50.842;4.386;2023-09-07T10:13:05;38.20;94.30
22526;DHT22;11429;50.842;4.386;2023-09-07T10:15:31;38.50;94.10
22526;DHT22;11429;50.842;4.386;2023-09-07T10:18:17;38.20;94.50
22526;DHT22;11429;50.842;4.386;2023-09-07T10:20:59;37.60;94.40
22526;DHT22;11429;50.842;4.386;2023-09-07T10:23:44;37.60;94.30
22526;DHT22;11429;50.842;4.386;2023-09-07T10:26:20;37.50;94.80
22526;DHT22;11429;50.842;4.386;2023-09-07T10:28:47;37.50;94.20
22526;DHT22;11429;50.842;4.386;2023-09-07T10:31:19;37.70;93.90
22526;DHT22;11429;50.842;4.386;2023-09-07T10:33:46;38.30;94.10
22526;DHT22;11429;50.842;4.386;2023-09-07T10:36:22;38.60;93.10
22526;DHT22;11429;50.842;4.386;2023-09-07T10:38:49;38.60;92.70
22526;DHT22;11429;50.842;4.386;2023-09-07T10:41:15;37.90;93.60
22526;DHT22;11429;50.842;4.386;2023-09-07T10:43:53;36.70;94.10
22526;DHT22;11429;50.842;4.386;2023-09-07T10:46:23;36.20;94.60
22526;DHT22;11429;50.842;4.386;2023-09-07T10:48:50;36.50;94.70
22526;DHT22;11429;50.842;4.386;2023-09-07T10:51:17;36.00;96.00
22526;DHT22;11429;50.842;4.386;2023-09-07T10:53:43;37.50;94.30
22526;DHT22;11429;50.842;4.386;2023-09-07T10:56:08;36.60;94.20
22526;DHT22;11429;50.842;4.386;2023-09-07T10:58:36;34.50;96.50
22526;DHT22;11429;50.842;4.386;2023-09-07T11:01:06;35.40;95.80
22526;DHT22;11429;50.842;4.386;2023-09-07T11:03:32;35.50;95.80
22526;DHT22;11429;50.842;4.386;2023-09-07T11:06:11;36.30;95.00
22526;DHT22;11429;50.842;4.386;2023-09-07T11:08:37;36.50;94.10
22526;DHT22;11429;50.842;4.386;2023-09-07T11:11:03;36.20;95.20
22526;DHT22;11429;50.842;4.386;2023-09-07T11:13:29;37.00;94.10
22526;DHT22;11429;50.842;4.386;2023-09-07T11:15:56;36.90;94.00
22526;DHT22;11429;50.842;4.386;2023-09-07T11:18:23;37.10;94.00
22526;DHT22;11429;50.842;4.386;2023-09-07T11:20:51;35.90;95.30
22526;DHT22;11429;50.842;4.386;2023-09-07T11:23:18;36.50;94.50
22526;DHT22;11429;50.842;4.386;2023-09-07T11:25:44;37.10;94.60
22526;DHT22;11429;50.842;4.386;2023-09-07T11:28:11;37.00;93.80
22526;DHT22;11429;50.842;4.386;2023-09-07T11:30:37;37.20;93.60
22526;DHT22;11429;50.842;4.386;2023-09-07T11:33:15;37.10;93.60
22526;DHT22;11429;50.842;4.386;2023-09-07T11:35:41;36.70;93.30
22526;DHT22;11429;50.842;4.386;2023-09-07T11:38:07;36.10;93.10
22526;DHT22;11429;50.842;4.386;2023-09-07T11:40:35;35.70;93.90
22526;DHT22;11429;50.842;4.386;2023-09-07T11:43:01;34.40;95.30
22526;DHT22;11429;50.842;4.386;2023-09-07T11:45:27;33.40;96.50
22526;DHT22;11429;50.842;4.386;2023-09-07T11:47:53;33.50;96.20
22526;DHT22;11429;50.842;4.386;2023-09-07T11:50:19;34.00;94.80
22526;DHT22;11429;50.842;4.386;2023-09-07T11:52:46;34.30;94.80
22526;DHT22;11429;50.842;4.386;2023-09-07T11:55:14;33.60;95.70
22526;DHT22;11429;50.842;4.386;2023-09-07T11:57:40;33.40;96.10
22526;DHT22;11429;50.842;4.386;2023-09-07T12:00:07;33.50;96.00
22526;DHT22;11429;50.842;4.386;2023-09-07T12:02:35;33.20;95.70
22526;DHT22;11429;50.842;4.386;2023-09-07T12:05:01;33.70;95.60
22526;DHT22;11429;50.842;4.386;2023-09-07T12:07:29;33.60;96.40
22526;DHT22;11429;50.842;4.386;2023-09-07T12:09:56;33.60;96.10
22526;DHT22;11429;50.842;4.386;2023-09-07T12:12:23;34.00;95.60
22526;DHT22;11429;50.842;4.386;2023-09-07T12:14:49;33.60;95.50
22526;DHT22;11429;50.842;4.386;2023-09-07T12:17:15;33.50;95.40
22526;DHT22;11429;50.842;4.386;2023-09-07T12:19:41;33.10;95.70
22526;DHT22;11429;50.842;4.386;2023-09-07T12:22:07;32.70;96.70
22526;DHT22;11429;50.842;4.386;2023-09-07T12:24:33;32.50;97.10
22526;DHT22;11429;50.842;4.386;2023-09-07T12:26:59;32.30;97.00
22526;DHT22;11429;50.842;4.386;2023-09-07T12:29:27;32.20;97.70
22526;DHT22;11429;50.842;4.386;2023-09-07T12:31:53;32.10;97.10
22526;DHT22;11429;50.842;4.386;2023-09-07T12:34:19;32.10;97.50
22526;DHT22;11429;50.842;4.386;2023-09-07T12:36:44;31.90;97.50
22526;DHT22;11429;50.842;4.386;2023-09-07T12:39:10;31.70;98.30
22526;DHT22;11429;50.842;4.386;2023-09-07T12:41:38;31.40;98.00
22526;DHT22;11429;50.842;4.386;2023-09-07T12:44:04;31.30;98.30
22526;DHT22;11429;50.842;4.386;2023-09-07T12:46:31;31.40;99.20
22526;DHT22;11429;50.842;4.386;2023-09-07T12:48:57;30.80;99.20
22526;DHT22;11429;50.842;4.386;2023-09-07T12:51:23;31.00;99.00
22526;DHT22;11429;50.842;4.386;2023-09-07T12:53:48;31.20;98.70
22526;DHT22;11429;50.842;4.386;2023-09-07T12:56:14;31.00;99.70
22526;DHT22;11429;50.842;4.386;2023-09-07T12:58:41;30.60;99.90
22526;DHT22;11429;50.842;4.386;2023-09-07T13:01:08;30.20;99.90
22526;DHT22;11429;50.842;4.386;2023-09-07T13:03:38;30.40;99.90
22526;DHT22;11429;50.842;4.386;2023-09-07T13:06:04;30.40;99.90
22526;DHT22;11429;50.842;4.386;2023-09-07T13:08:30;30.50;99.70
22526;DHT22;11429;50.842;4.386;2023-09-07T13:10:56;30.40;99.90
22526;DHT22;11429;50.842;4.386;2023-09-07T13:13:25;30.70;99.70
22526;DHT22;11429;50.842;4.386;2023-09-07T13:15:58;30.70;99.70
22526;DHT22;11429;50.842;4.386;2023-09-07T13:20:51;30.10;99.90
22526;DHT22;11429;50.842;4.386;2023-09-07T13:23:20;30.00;99.90
22526;DHT22;11429;50.842;4.386;2023-09-07T13:25:46;30.00;99.90
22526;DHT22;11429;50.842;4.386;2023-09-07T13:28:11;30.20;99.90
22526;DHT22;11429;50.842;4.386;2023-09-07T13:30:37;30.00;99.90
22526;DHT22;11429;50.842;4.386;2023-09-07T13:33:03;29.70;99.90
22526;DHT22;11429;50.842;4.386;2023-09-07T13:35:29;29.70;99.90
22526;DHT22;11429;50.842;4.386;2023-09-07T13:37:55;29.80;99.90
22526;DHT22;11429;50.842;4.386;2023-09-07T13:40:21;29.80;99.90
22526;DHT22;11429;50.842;4.386;2023-09-07T13:42:49;29.90;99.90
22526;DHT22;11429;50.842;4.386;2023-09-07T13:45:15;30.00;99.90
22526;DHT22;11429;50.842;4.386;2023-09-07T13:47:41;30.40;99.90
22526;DHT22;11429;50.842;4.386;2023-09-07T13:50:07;30.00;99.90
22526;DHT22;11429;50.842;4.386;2023-09-07T13:52:32;29.90;99.90
22526;DHT22;11429;50.842;4.386;2023-09-07T13:54:58;29.70;99.90
22526;DHT22;11429;50.842;4.386;2023-09-07T13:57:24;29.70;99.90
22526;DHT22;11429;50.842;4.386;2023-09-07T13:59:49;29.70;99.90
22526;DHT22;11429;50.842;4.386;2023-09-07T14:02:15;29.70;99.90
22526;DHT22;11429;50.842;4.386;2023-09-07T14:04:41;29.70;99.90
22526;DHT22;11429;50.842;4.386;2023-09-07T14:07:06;30.00;99.90
22526;DHT22;11429;50.842;4.386;2023-09-07T14:09:32;30.20;99.90
22526;DHT22;11429;50.842;4.386;2023-09-07T14:11:59;30.00;99.90
22526;DHT22;11429;50.842;4.386;2023-09-07T14:14:25;30.20;99.90
22526;DHT22;11429;50.842;4.386;2023-09-07T14:16:51;30.20;99.90
22526;DHT22;11429;50.842;4.386;2023-09-07T14:19:20;30.10;99.90
22526;DHT22;11429;50.842;4.386;2023-09-07T14:21:46;30.30;99.90
22526;DHT22;11429;50.842;4.386;2023-09-07T14:24:12;30.10;99.90
22526;DHT22;11429;50.842;4.386;2023-09-07T14:26:37;30.20;99.90
22526;DHT22;11429;50.842;4.386;2023-09-07T14:29:03;30.30;99.90
22526;DHT22;11429;50.842;4.386;2023-09-07T14:31:30;30.50;99.90
22526;DHT22;11429;50.842;4.386;2023-09-07T14:33:56;30.50;99.90
22526;DHT22;11429;50.842;4.386;2023-09-07T14:36:21;30.30;99.90
22526;DHT22;11429;50.842;4.386;2023-09-07T14:38:47;30.30;99.90
22526;DHT22;11429;50.842;4.386;2023-09-07T14:41:13;30.40;99.90
22526;DHT22;11429;50.842;4.386;2023-09-07T14:43:45;30.10;99.90
22526;DHT22;11429;50.842;4.386;2023-09-07T14:46:12;30.30;99.90
22526;DHT22;11429;50.842;4.386;2023-09-07T14:48:37;30.30;99.90
22526;DHT22;11429;50.842;4.386;2023-09-07T14:51:03;30.30;99.90
22526;DHT22;11429;50.842;4.386;2023-09-07T14:53:29;30.40;99.90
22526;DHT22;11429;50.842;4.386;2023-09-07T14:55:56;30.20;99.90
22526;DHT22;11429;50.842;4.386;2023-09-07T14:58:21;30.20;99.90
22526;DHT22;11429;50.842;4.386;2023-09-07T15:00:47;30.30;99.90
22526;DHT22;11429;50.842;4.386;2023-09-07T15:03:13;30.40;99.90
22526;DHT22;11429;50.842;4.386;2023-09-07T15:05:38;30.30;99.90
22526;DHT22;11429;50.842;4.386;2023-09-07T15:08:04;30.20;99.90
22526;DHT22;11429;50.842;4.386;2023-09-07T15:10:32;30.00;99.90
22526;DHT22;11429;50.842;4.386;2023-09-07T15:13:00;30.00;99.90
22526;DHT22;11429;50.842;4.386;2023-09-07T15:15:28;30.20;99.90
22526;DHT22;11429;50.842;4.386;2023-09-07T15:17:54;30.30;99.90
22526;DHT22;11429;50.842;4.386;2023-09-07T15:20:20;30.30;99.90
22526;DHT22;11429;50.842;4.386;2023-09-07T15:22:46;30.30;99.90
22526;DHT22;11429;50.842;4.386;2023-09-07T15:25:12;30.20;99.90
22526;DHT22;11429;50.842;4.386;2023-09-07T15:27:37;30.30;99.90
22526;DHT22;11429;50.842;4.386;2023-09-07T15:30:03;30.30;99.90
22526;DHT22;11429;50.842;4.386;2023-09-07T15:32:30;30.40;99.90